createdAt,value
2017-08-15T00:02:10.844Z,3.10
2017-08-15T00:04:38.428Z,4.20
2017-08-15T00:07:05.959Z,5.27
2017-08-15T00:09:33.507Z,9.20
2017-08-15T00:12:01.116Z,6.00
2017-08-15T00:14:32.630Z,7.97
2017-08-15T00:17:00.128Z,6.13
2017-08-15T00:19:27.640Z,4.23
2017-08-15T00:21:55.297Z,4.43
2017-08-15T00:24:22.824Z,2.70
2017-08-15T00:26:51.116Z,6.93
2017-08-15T00:29:19.491Z,7.47
2017-08-15T00:31:47.852Z,4.80
2017-08-15T00:34:15.449Z,3.57
2017-08-15T00:36:43.082Z,7.73
2017-08-15T00:39:11.658Z,4.73
2017-08-15T00:41:39.236Z,3.43
2017-08-15T00:44:06.740Z,2.80
2017-08-15T00:46:34.257Z,3.13
2017-08-15T00:49:02.550Z,2.60
2017-08-15T00:51:30.093Z,2.97
2017-08-15T00:53:59.391Z,5.67
2017-08-15T00:56:27.756Z,3.20
2017-08-15T00:58:56.060Z,4.07
2017-08-15T01:01:23.555Z,5.13
2017-08-15T01:03:51.936Z,3.50
2017-08-15T01:06:19.432Z,2.80
2017-08-15T01:08:47.434Z,3.00
2017-08-15T01:11:14.951Z,4.10
2017-08-15T01:13:42.627Z,3.27
2017-08-15T01:16:10.155Z,4.30
2017-08-15T01:18:40.974Z,3.47
2017-08-15T01:21:08.615Z,3.50
2017-08-15T01:23:36.110Z,3.30
2017-08-15T01:26:03.620Z,2.60
2017-08-15T01:28:31.712Z,3.70
2017-08-15T01:31:04.715Z,3.63
2017-08-15T01:33:32.753Z,3.30
2017-08-15T01:36:00.455Z,4.30
2017-08-15T01:38:27.996Z,2.50
2017-08-15T01:40:55.491Z,6.77
2017-08-15T01:43:23.067Z,5.80
2017-08-15T01:45:50.581Z,2.90
2017-08-15T01:48:18.104Z,5.43
2017-08-15T01:50:45.695Z,2.90
2017-08-15T01:53:13.226Z,5.80
2017-08-15T01:55:40.782Z,4.60
2017-08-15T01:58:08.296Z,2.83
2017-08-15T02:00:35.804Z,4.17
2017-08-15T02:03:08.743Z,3.53
2017-08-15T02:05:36.324Z,3.10
2017-08-15T02:08:03.843Z,8.60
2017-08-15T02:10:31.360Z,3.90
2017-08-15T02:12:58.888Z,6.00
2017-08-15T02:15:26.450Z,2.97
2017-08-15T02:17:53.968Z,5.07
2017-08-15T02:20:25.015Z,6.90
2017-08-15T02:22:52.980Z,3.17
2017-08-15T02:25:20.479Z,6.10
2017-08-15T02:27:48.043Z,7.87
2017-08-15T02:30:15.599Z,3.87
2017-08-15T02:32:43.091Z,3.90
2017-08-15T02:35:11.336Z,5.60
2017-08-15T02:37:38.894Z,3.90
2017-08-15T02:40:06.420Z,6.20
2017-08-15T02:42:34.031Z,3.40
2017-08-15T02:45:02.255Z,3.97
2017-08-15T02:47:30.444Z,3.30
2017-08-15T02:49:59.032Z,4.33
2017-08-15T02:52:26.586Z,3.87
2017-08-15T02:54:54.108Z,7.67
2017-08-15T02:57:21.689Z,4.20
2017-08-15T02:59:49.204Z,2.60
2017-08-15T03:02:21.271Z,2.53
2017-08-15T03:04:48.827Z,2.80
2017-08-15T03:07:17.118Z,3.40
2017-08-15T03:09:44.676Z,5.33
2017-08-15T03:12:12.227Z,3.87
2017-08-15T03:14:39.781Z,4.40
2017-08-15T03:17:07.333Z,4.90
2017-08-15T03:19:34.904Z,4.30
2017-08-15T03:22:02.461Z,3.60
2017-08-15T03:24:29.989Z,4.50
2017-08-15T03:26:58.299Z,7.70
2017-08-15T03:29:25.836Z,5.83
2017-08-15T03:31:54.276Z,4.63
2017-08-15T03:34:21.824Z,3.63
2017-08-15T03:36:49.329Z,3.67
2017-08-15T03:39:16.847Z,3.60
2017-08-15T03:41:44.411Z,3.93
2017-08-15T03:44:11.933Z,5.27
2017-08-15T03:46:39.455Z,5.23
2017-08-15T03:49:07.019Z,4.20
2017-08-15T03:51:34.572Z,6.03
2017-08-15T03:54:02.128Z,3.70
2017-08-15T03:56:29.678Z,4.23
2017-08-15T03:58:58.114Z,3.17
2017-08-15T04:01:25.640Z,4.80
2017-08-15T04:03:53.200Z,5.60
2017-08-15T04:06:20.747Z,5.03
2017-08-15T04:08:49.060Z,5.87
2017-08-15T04:11:16.575Z,9.10
2017-08-15T04:13:44.296Z,3.63
2017-08-15T04:16:11.838Z,4.73
2017-08-15T04:18:42.643Z,3.40
2017-08-15T04:21:11.429Z,3.63
2017-08-15T04:23:39.003Z,5.20
2017-08-15T04:26:06.515Z,4.97
2017-08-15T04:28:34.037Z,4.67
2017-08-15T04:31:01.576Z,5.50
2017-08-15T04:33:29.157Z,4.50
2017-08-15T04:35:56.715Z,3.27
2017-08-15T04:38:24.248Z,3.43
2017-08-15T04:40:51.969Z,6.90
2017-08-15T04:43:19.543Z,4.73
2017-08-15T04:45:47.055Z,7.00
2017-08-15T04:48:14.604Z,5.10
2017-08-15T04:50:42.929Z,5.53
2017-08-15T04:53:10.575Z,5.03
2017-08-15T04:55:38.191Z,5.53
2017-08-15T04:58:05.720Z,5.17
2017-08-15T05:00:33.232Z,6.37
2017-08-15T05:03:00.831Z,6.90
2017-08-15T05:05:28.413Z,5.13
2017-08-15T05:07:55.924Z,8.30
2017-08-15T05:10:23.472Z,6.37
2017-08-15T05:12:50.996Z,6.23
2017-08-15T05:15:18.532Z,6.03
2017-08-15T05:17:46.069Z,7.03
2017-08-15T05:20:13.617Z,12.80
2017-08-15T05:22:45.704Z,7.63
2017-08-15T05:25:13.254Z,8.20
2017-08-15T05:27:40.755Z,9.50
2017-08-15T05:30:08.303Z,9.00
2017-08-15T05:32:35.883Z,8.93
2017-08-15T05:35:06.692Z,10.33
2017-08-15T05:37:34.236Z,7.50
2017-08-15T05:40:01.769Z,7.03
2017-08-15T05:42:29.370Z,13.93
2017-08-15T05:44:57.439Z,7.13
2017-08-15T05:47:25.019Z,8.27
2017-08-15T05:49:55.648Z,9.53
2017-08-15T05:52:27.199Z,8.37
2017-08-15T05:54:55.615Z,9.67
2017-08-15T05:57:23.299Z,12.43
2017-08-15T05:59:50.800Z,8.77
2017-08-15T06:02:18.303Z,7.93
2017-08-15T06:04:45.815Z,5.30
2017-08-15T06:07:13.323Z,8.40
2017-08-15T06:09:40.827Z,7.30
2017-08-15T06:12:08.993Z,12.10
2017-08-15T06:14:36.568Z,9.67
2017-08-15T06:17:04.067Z,11.53
2017-08-15T06:19:31.728Z,8.27
2017-08-15T06:22:02.532Z,8.83
2017-08-15T06:24:30.036Z,12.03
2017-08-15T06:26:57.550Z,8.93
2017-08-15T06:29:25.047Z,8.57
2017-08-15T06:31:52.583Z,6.73
2017-08-15T06:34:20.126Z,4.20
2017-08-15T06:36:47.632Z,6.10
2017-08-15T06:39:20.255Z,6.90
2017-08-15T06:41:47.775Z,5.60
2017-08-15T06:44:15.976Z,5.57
2017-08-15T06:46:43.547Z,5.30
2017-08-15T06:49:11.083Z,6.37
2017-08-15T06:51:39.351Z,3.73
2017-08-15T06:54:10.903Z,4.97
2017-08-15T06:56:38.402Z,7.23
2017-08-15T06:59:05.951Z,4.73
2017-08-15T07:01:33.451Z,3.87
2017-08-15T07:04:00.999Z,3.60
2017-08-15T07:06:28.499Z,6.17
2017-08-15T07:08:56.087Z,5.17
2017-08-15T07:11:23.595Z,2.97
2017-08-15T07:13:51.099Z,3.67
2017-08-15T07:16:19.311Z,4.63
2017-08-15T07:18:46.811Z,4.97
2017-08-15T07:21:14.322Z,9.20
2017-08-15T07:23:41.855Z,5.73
2017-08-15T07:26:10.265Z,3.60
2017-08-15T07:28:37.797Z,3.73
2017-08-15T07:31:06.087Z,4.20
2017-08-15T07:33:33.587Z,4.53
2017-08-15T07:36:01.136Z,4.37
2017-08-15T07:38:32.379Z,6.33
2017-08-15T07:40:59.930Z,4.40
2017-08-15T07:43:27.948Z,3.70
2017-08-15T07:45:55.457Z,7.87
2017-08-15T07:48:22.959Z,5.77
2017-08-15T07:50:51.431Z,5.33
2017-08-15T07:53:20.597Z,4.47
2017-08-15T07:55:48.119Z,4.40
2017-08-15T07:58:16.399Z,3.80
2017-08-15T08:00:43.912Z,3.07
2017-08-15T08:03:11.500Z,3.77
2017-08-15T08:05:39.068Z,3.97
2017-08-15T08:08:06.607Z,6.80
2017-08-15T08:10:38.062Z,3.40
2017-08-15T08:13:05.600Z,3.40
2017-08-15T08:15:33.107Z,5.87
2017-08-15T08:18:00.660Z,5.77
2017-08-15T08:20:28.192Z,6.40
2017-08-15T08:22:59.948Z,3.90
2017-08-15T08:25:28.137Z,4.97
2017-08-15T08:41:20.957Z,2.47
2017-08-15T08:43:48.499Z,3.30
2017-08-15T08:46:16.284Z,4.77
2017-08-15T08:48:43.879Z,5.50
2017-08-15T08:51:11.430Z,4.03
2017-08-15T08:53:38.931Z,3.97
2017-08-15T08:56:07.303Z,5.00
2017-08-15T08:58:35.615Z,4.47
2017-08-15T09:01:03.122Z,2.77
2017-08-15T09:03:30.684Z,4.80
2017-08-15T09:05:58.190Z,2.40
2017-08-15T09:08:25.705Z,3.80
2017-08-15T09:10:53.213Z,4.97
2017-08-15T09:13:20.755Z,3.77
2017-08-15T09:15:48.288Z,2.60
2017-08-15T09:18:15.999Z,2.70
2017-08-15T09:20:43.572Z,2.80
2017-08-15T09:23:11.188Z,3.60
2017-08-15T09:25:39.504Z,3.50
2017-08-15T09:28:07.028Z,3.23
2017-08-15T09:30:35.311Z,3.50
2017-08-15T09:33:02.816Z,4.47
2017-08-15T09:35:30.564Z,3.00
2017-08-15T09:37:58.121Z,3.03
2017-08-15T09:40:25.771Z,5.80
2017-08-15T09:42:53.284Z,6.43
2017-08-15T09:45:20.876Z,3.70
2017-08-15T09:47:48.390Z,6.77
2017-08-15T09:50:15.889Z,5.50
2017-08-15T09:52:43.492Z,5.77
2017-08-15T09:55:10.991Z,4.67
2017-08-15T09:57:38.492Z,8.70
2017-08-15T10:00:06.061Z,2.13
2017-08-15T10:02:34.566Z,3.73
2017-08-15T10:05:02.077Z,3.03
2017-08-15T10:07:29.619Z,4.73
2017-08-15T10:09:57.163Z,3.00
2017-08-15T10:12:25.920Z,2.60
2017-08-15T10:14:53.528Z,3.00
2017-08-15T10:17:21.115Z,7.60
2017-08-15T10:19:48.650Z,16.10
2017-08-15T10:22:16.166Z,3.90
2017-08-15T10:24:43.676Z,7.93
2017-08-15T10:27:11.200Z,2.80
2017-08-15T10:29:38.732Z,2.70
2017-08-15T10:32:06.291Z,2.40
2017-08-15T10:34:33.801Z,4.33
2017-08-15T10:37:01.316Z,2.83
2017-08-15T10:39:28.823Z,6.00
2017-08-15T10:41:56.348Z,2.73
2017-08-15T10:44:23.881Z,3.23
2017-08-15T10:46:51.428Z,4.90
2017-08-15T10:49:18.997Z,3.63
2017-08-15T10:51:46.538Z,5.13
2017-08-15T10:54:14.076Z,3.43
2017-08-15T10:56:41.595Z,2.93
2017-08-15T10:59:09.089Z,2.13
2017-08-15T11:01:36.620Z,2.47
2017-08-15T11:04:04.165Z,3.77
2017-08-15T11:06:31.691Z,4.27
2017-08-15T11:08:59.201Z,4.90
2017-08-15T11:11:30.676Z,2.17
2017-08-15T11:13:58.180Z,2.20
2017-08-15T11:16:25.703Z,1.83
2017-08-15T11:18:53.223Z,3.23
2017-08-15T11:21:21.656Z,5.80
2017-08-15T11:23:49.242Z,2.10
2017-08-15T11:26:16.760Z,4.00
2017-08-15T11:28:44.264Z,1.93
2017-08-15T11:31:11.775Z,3.63
2017-08-15T11:33:39.287Z,3.33
2017-08-15T11:36:06.787Z,2.43
2017-08-15T11:38:34.308Z,2.27
2017-08-15T11:41:05.675Z,2.30
2017-08-15T11:43:33.698Z,3.07
2017-08-15T11:46:01.216Z,2.03
2017-08-15T11:48:28.776Z,1.90
2017-08-15T11:50:56.274Z,2.37
2017-08-15T11:53:23.767Z,3.10
2017-08-15T11:55:51.296Z,2.57
2017-08-15T11:58:18.806Z,2.47
2017-08-15T12:00:46.344Z,2.80
2017-08-15T12:03:13.873Z,3.67
2017-08-15T12:05:41.431Z,2.27
2017-08-15T12:08:09.005Z,3.70
2017-08-15T12:10:37.305Z,2.60
2017-08-15T12:13:08.568Z,2.40
2017-08-15T12:15:36.071Z,2.93
2017-08-15T12:18:03.590Z,2.63
2017-08-15T12:20:31.146Z,2.93
2017-08-15T12:22:58.716Z,2.47
2017-08-15T12:25:26.332Z,2.77
2017-08-15T12:27:53.839Z,4.47
2017-08-15T12:30:22.652Z,3.80
2017-08-15T12:32:50.151Z,3.33
2017-08-15T12:35:17.669Z,4.37
2017-08-15T12:40:35.592Z,2.50
2017-08-15T12:43:03.101Z,2.50
2017-08-15T12:45:30.599Z,2.63
2017-08-15T12:47:58.123Z,3.57
2017-08-15T12:50:25.712Z,2.73
2017-08-15T12:52:53.295Z,2.80
2017-08-15T12:55:20.800Z,7.03
2017-08-15T12:57:48.300Z,3.03
2017-08-15T13:00:15.809Z,3.00
2017-08-15T13:02:43.306Z,2.90
2017-08-15T13:05:10.932Z,5.23
2017-08-15T13:07:38.436Z,5.03
2017-08-15T13:10:05.952Z,4.80
2017-08-15T13:12:33.512Z,3.90
2017-08-15T13:15:01.011Z,3.23
2017-08-15T13:17:28.532Z,3.27
2017-08-15T13:19:56.030Z,3.10
2017-08-15T13:22:23.621Z,4.97
2017-08-15T13:24:51.200Z,4.47
2017-08-15T13:27:18.715Z,4.40
2017-08-15T13:29:51.011Z,3.70
2017-08-15T13:32:18.517Z,2.70
2017-08-15T13:34:46.841Z,4.87
2017-08-15T13:37:14.366Z,4.73
2017-08-15T13:39:42.668Z,4.07
2017-08-15T13:42:10.275Z,5.20
2017-08-15T13:44:38.576Z,4.27
2017-08-15T13:47:07.117Z,3.67
2017-08-15T13:49:34.652Z,5.03
2017-08-15T13:52:02.184Z,4.27
2017-08-15T13:54:30.859Z,3.20
2017-08-15T13:56:59.146Z,6.27
2017-08-15T13:59:26.656Z,5.13
2017-08-15T14:01:54.193Z,4.17
2017-08-15T14:04:21.731Z,4.90
2017-08-15T14:06:49.234Z,6.27
2017-08-15T14:09:17.728Z,6.40
2017-08-15T14:11:45.239Z,3.33
2017-08-15T14:14:12.760Z,3.10
2017-08-15T14:16:40.324Z,6.47
2017-08-15T14:19:07.868Z,3.97
2017-08-15T14:21:35.593Z,5.60
2017-08-15T14:24:03.102Z,2.73
2017-08-15T14:26:30.607Z,3.57
2017-08-15T14:28:58.143Z,3.50
2017-08-15T14:31:26.469Z,8.80
2017-08-15T14:33:53.972Z,7.00
2017-08-15T14:36:21.532Z,4.17
2017-08-15T14:38:49.027Z,2.50
2017-08-15T14:41:16.575Z,3.00
2017-08-15T14:43:47.948Z,3.67
2017-08-15T14:46:15.525Z,7.13
2017-08-15T14:48:43.047Z,3.13
2017-08-15T14:51:10.677Z,2.50
2017-08-15T14:53:38.196Z,2.50
2017-08-15T14:56:05.708Z,4.00
2017-08-15T14:58:33.536Z,2.90
2017-08-15T15:01:01.053Z,5.10
2017-08-15T15:03:28.684Z,5.00
2017-08-15T15:05:56.288Z,4.93
2017-08-15T15:08:23.842Z,5.30
2017-08-15T15:10:51.347Z,3.43
2017-08-15T15:13:18.858Z,4.57
2017-08-15T15:15:46.666Z,4.03
2017-08-15T15:18:14.223Z,5.10
2017-08-15T15:20:42.371Z,3.07
2017-08-15T15:23:10.503Z,6.20
2017-08-15T15:25:38.040Z,4.57
2017-08-15T15:28:05.556Z,2.50
2017-08-15T15:30:33.118Z,4.60
2017-08-15T15:33:00.620Z,4.80
2017-08-15T15:35:28.263Z,4.40
2017-08-15T15:37:55.843Z,2.90
2017-08-15T15:40:24.337Z,4.43
2017-08-15T15:42:51.853Z,4.77
2017-08-15T15:45:19.388Z,4.37
2017-08-15T15:47:47.661Z,3.27
2017-08-15T15:50:15.183Z,4.03
2017-08-15T15:52:42.699Z,2.50
2017-08-15T15:55:10.996Z,4.80
2017-08-15T15:57:38.504Z,5.53
2017-08-15T16:00:06.838Z,5.37
2017-08-15T16:02:34.350Z,6.90
2017-08-15T16:05:01.928Z,3.20
2017-08-15T16:07:29.524Z,4.13
2017-08-15T16:09:57.080Z,3.67
2017-08-15T16:12:25.280Z,6.57
2017-08-15T16:14:52.836Z,4.47
2017-08-15T16:17:20.387Z,6.10
2017-08-15T16:19:47.900Z,4.33
2017-08-15T16:22:15.416Z,9.43
2017-08-15T16:24:42.911Z,6.97
2017-08-15T16:27:10.500Z,4.10
2017-08-15T16:29:38.157Z,8.17
2017-08-15T16:32:06.508Z,5.83
2017-08-15T16:34:34.019Z,4.43
2017-08-15T16:37:01.614Z,8.40
2017-08-15T16:39:29.143Z,3.63
2017-08-15T16:41:56.699Z,7.00
2017-08-15T16:44:24.222Z,7.63
2017-08-15T16:46:52.557Z,6.60
2017-08-15T16:49:20.092Z,13.57
2017-08-15T16:51:47.625Z,4.07
2017-08-15T16:54:15.187Z,5.43
2017-08-15T16:56:43.593Z,3.83
2017-08-15T16:59:11.128Z,3.43
2017-08-15T17:01:42.823Z,6.43
2017-08-15T17:04:10.619Z,4.03
2017-08-15T17:06:38.144Z,3.97
2017-08-15T17:09:05.703Z,7.03
2017-08-15T17:11:33.231Z,4.70
2017-08-15T17:14:00.757Z,6.57
2017-08-15T17:16:28.284Z,13.70
2017-08-15T17:18:55.799Z,4.87
2017-08-15T17:21:23.318Z,8.00
2017-08-15T17:23:50.849Z,5.60
2017-08-15T17:26:18.380Z,5.83
2017-08-15T17:28:46.679Z,3.33
2017-08-15T17:31:14.184Z,3.80
2017-08-15T17:33:41.686Z,5.13
2017-08-15T17:36:09.219Z,4.60
2017-08-15T17:38:36.758Z,2.50
2017-08-15T17:41:04.272Z,7.93
2017-08-15T17:43:31.772Z,5.30
2017-08-15T17:45:59.323Z,9.23
2017-08-15T17:48:27.905Z,6.33
2017-08-15T17:50:55.404Z,5.33
2017-08-15T17:53:22.925Z,5.13
2017-08-15T17:55:50.434Z,3.83
2017-08-15T17:58:17.948Z,9.50
2017-08-15T18:00:45.460Z,3.47
2017-08-15T18:03:13.006Z,6.57
2017-08-15T18:05:40.552Z,7.70
2017-08-15T18:08:08.073Z,6.00
2017-08-15T18:10:35.599Z,8.10
2017-08-15T18:13:03.132Z,7.50
2017-08-15T18:15:30.652Z,2.87
2017-08-15T18:17:58.160Z,7.90
2017-08-15T18:20:29.468Z,4.30
2017-08-15T18:22:56.983Z,4.30
2017-08-15T18:25:25.307Z,3.87
2017-08-15T18:27:52.826Z,7.30
2017-08-15T18:30:21.092Z,2.60
2017-08-15T18:32:48.607Z,4.87
2017-08-15T18:35:16.138Z,5.10
2017-08-15T18:37:43.639Z,5.20
2017-08-15T18:40:11.188Z,4.50
2017-08-15T18:42:38.688Z,3.60
2017-08-15T18:45:06.233Z,4.33
2017-08-15T18:47:37.133Z,5.67
2017-08-15T18:50:04.648Z,3.73
2017-08-15T18:52:32.172Z,4.57
2017-08-15T18:54:59.688Z,4.03
2017-08-15T18:57:27.230Z,7.17
2017-08-15T18:59:55.953Z,7.00
2017-08-15T19:02:23.475Z,7.53
2017-08-15T19:04:50.985Z,6.20
2017-08-15T19:07:18.539Z,5.17
2017-08-15T19:09:46.039Z,3.03
2017-08-15T19:12:13.708Z,8.07
2017-08-15T19:14:41.300Z,8.50
2017-08-15T19:17:08.848Z,6.30
2017-08-15T19:19:36.360Z,7.27
2017-08-15T19:22:03.880Z,6.90
2017-08-15T19:24:31.400Z,6.63
2017-08-15T19:26:58.907Z,10.43
2017-08-15T19:29:26.428Z,7.63
2017-08-15T19:31:53.945Z,6.07
2017-08-15T19:34:21.513Z,4.33
2017-08-15T19:36:49.031Z,10.40
2017-08-15T19:39:17.337Z,7.13
2017-08-15T19:41:44.889Z,14.63
2017-08-15T19:44:13.129Z,17.07
2017-08-15T19:46:40.689Z,5.40
2017-08-15T19:49:08.975Z,9.17
2017-08-15T19:51:36.527Z,11.70
2017-08-15T19:54:04.055Z,10.50
2017-08-15T19:56:31.587Z,10.80
2017-08-15T19:59:00.023Z,8.10
2017-08-15T20:01:27.577Z,8.57
2017-08-15T20:03:55.080Z,12.77
2017-08-15T20:06:22.605Z,12.43
2017-08-15T20:08:50.476Z,7.13
2017-08-15T20:11:17.971Z,11.20
2017-08-15T20:13:45.490Z,9.73
2017-08-15T20:16:13.835Z,11.40
2017-08-15T20:18:41.333Z,8.83
2017-08-15T20:21:08.852Z,12.23
2017-08-15T20:23:39.614Z,11.23
2017-08-15T20:26:07.120Z,12.03
2017-08-15T20:28:34.663Z,10.33
2017-08-15T20:31:02.258Z,9.00
2017-08-15T20:33:29.758Z,13.73
2017-08-15T20:35:57.270Z,9.60
2017-08-15T20:38:24.800Z,13.37
2017-08-15T20:40:52.573Z,13.70
2017-08-15T20:43:20.140Z,10.10
2017-08-15T20:45:47.853Z,10.70
2017-08-15T20:48:15.415Z,9.33
2017-08-15T20:50:46.970Z,12.90
2017-08-15T20:53:14.570Z,8.07
2017-08-15T20:55:42.137Z,10.10
2017-08-15T20:58:10.087Z,11.17
2017-08-15T21:00:37.609Z,10.63
2017-08-15T21:03:05.110Z,12.27
2017-08-15T21:05:33.405Z,13.97
2017-08-15T21:08:00.931Z,10.87
2017-08-15T21:10:28.577Z,11.97
2017-08-15T21:12:56.531Z,12.80
2017-08-15T21:15:24.036Z,10.87
2017-08-15T21:17:51.591Z,12.20
2017-08-15T21:20:19.105Z,13.13
2017-08-15T21:22:46.641Z,12.43
2017-08-15T21:25:14.196Z,13.10
2017-08-15T21:27:41.701Z,10.90
2017-08-15T21:30:09.201Z,9.70
2017-08-15T21:32:36.743Z,8.53
2017-08-15T21:35:05.195Z,10.00
2017-08-15T21:37:32.710Z,9.70
2017-08-15T21:40:00.279Z,9.17
2017-08-15T21:42:27.760Z,10.20
2017-08-15T21:44:55.268Z,10.63
2017-08-15T21:47:23.209Z,11.30
2017-08-15T21:49:50.684Z,8.07
2017-08-15T21:52:19.057Z,10.90
2017-08-15T21:54:46.555Z,11.90
2017-08-15T21:57:14.094Z,14.63
2017-08-15T21:59:41.627Z,12.03
2017-08-15T22:02:14.677Z,8.30
2017-08-15T22:04:42.185Z,13.87
2017-08-15T22:07:10.493Z,11.37
2017-08-15T22:09:39.373Z,9.50
2017-08-15T22:12:07.346Z,10.63
2017-08-15T22:14:34.863Z,9.30
2017-08-15T22:17:02.376Z,9.87
2017-08-15T22:19:29.951Z,10.10
2017-08-15T22:22:04.927Z,14.73
2017-08-15T22:24:32.432Z,9.33
2017-08-15T22:27:00.760Z,8.80
2017-08-15T22:29:28.279Z,8.40
2017-08-15T22:31:55.788Z,9.20
2017-08-15T22:34:23.341Z,9.57
2017-08-15T22:36:50.854Z,16.80
2017-08-15T22:39:21.738Z,15.63
2017-08-15T22:41:49.253Z,11.13
2017-08-15T22:44:17.526Z,11.33
2017-08-15T22:46:45.052Z,8.87
2017-08-15T22:49:13.485Z,19.20
2017-08-15T22:51:40.996Z,11.50
2017-08-15T22:54:10.749Z,12.33
2017-08-15T22:56:40.075Z,18.57
2017-08-15T22:59:08.019Z,12.80
2017-08-15T23:01:35.540Z,9.13
2017-08-15T23:04:03.035Z,12.07
2017-08-15T23:06:30.599Z,12.93
2017-08-15T23:08:58.107Z,11.97
2017-08-15T23:11:25.619Z,16.60
2017-08-15T23:13:53.186Z,17.13
2017-08-15T23:16:22.450Z,14.00
2017-08-15T23:18:50.000Z,13.40
2017-08-15T23:21:17.555Z,10.50
2017-08-15T23:23:45.096Z,12.00
2017-08-15T23:26:12.604Z,14.80
2017-08-15T23:28:40.145Z,10.63
2017-08-15T23:31:07.712Z,11.67
2017-08-15T23:33:35.288Z,13.30
2017-08-15T23:36:03.195Z,10.87
2017-08-15T23:38:35.147Z,11.37
2017-08-15T23:41:02.696Z,13.77
2017-08-15T23:43:30.200Z,13.23
2017-08-15T23:45:57.709Z,32.43
2017-08-15T23:48:25.219Z,9.73
2017-08-15T23:50:52.806Z,12.20
2017-08-15T23:53:20.404Z,13.83
2017-08-15T23:55:47.912Z,13.73
2017-08-15T23:58:15.452Z,11.27
